SZP weather

Santa Paula Airport
Santa Paula, California, United States

Public forecast

Using degrees Fahrenheit for public forecast. Weather courtesy of forecast.io.

METAR (pilot weather report)

Closest report is Camarillo Airport, 8.2 nm (15.2 km) SSW. Retrieved 2019/07/19 14:55 UTC (42 minutes ago):

KCMA 191455Z 22003KT 10SM OVC016 19/14 A2995 RMK AO2 SLP150 T01890139 53011

TAF (pilot weather forecast)

Closest forecast is Camarillo Airport, 8.2 nm (15.2 km) SSW. Retrieved 2019/07/19 12:20 UTC (3 hours ago):

TAF KCMA 191120Z 1912/2012 VRB03KT P6SM OVC015 FM191800 23008KT P6SM SKC FM200400 VRB03KT P6SM SKC FM200600 VRB03KT P6SM OVC012